Time;durP1;ratioP1;P1;durP2;ratioP2;P2;SDS_P1;SDS_P2;PMS_P1;PMS_P2;Temp;Humidity;BMP_temperature;BMP_pressure;BME280_temperature;BME280_humidity;BME280_pressure;Samples;Min_cycle;Max_cycle;Signal;HPM_P1;HPM_P2
2021/01/07 00:02:05;;;;;;;7.53;3.30;;;;;;;0.31;100.00;100572.53;5011218;28;20037;-71
2021/01/07 00:04:31;;;;;;;8.07;2.87;;;;;;;0.34;100.00;100554.66;5018373;28;20040;-71
2021/01/07 00:06:56;;;;;;;9.30;3.53;;;;;;;0.35;100.00;100559.84;5014769;28;20026;-70
2021/01/07 00:09:22;;;;;;;7.80;3.10;;;;;;;0.31;100.00;100563.13;5028576;28;20036;-72
2021/01/07 00:11:51;;;;;;;8.63;2.93;;;;;;;0.29;100.00;100560.50;5028211;28;20385;-70
2021/01/07 00:14:17;;;;;;;11.40;2.60;;;;;;;0.34;100.00;100568.38;5026211;28;20025;-71
2021/01/07 00:16:42;;;;;;;7.83;3.33;;;;;;;0.32;100.00;100558.88;5030470;28;20351;-72
2021/01/07 00:19:08;;;;;;;10.57;2.70;;;;;;;0.32;100.00;100559.75;5020638;28;20711;-70
2021/01/07 00:21:33;;;;;;;7.43;2.73;;;;;;;0.32;100.00;100559.75;5017707;28;20032;-70
2021/01/07 00:23:59;;;;;;;9.13;3.67;;;;;;;0.32;100.00;100554.59;5022347;28;20025;-71
2021/01/07 00:26:24;;;;;;;6.40;2.27;;;;;;;0.36;100.00;100558.16;5027633;28;20025;-70
2021/01/07 00:28:50;;;;;;;8.17;2.60;;;;;;;0.36;100.00;100551.31;5026224;28;20033;-68
2021/01/07 00:31:16;;;;;;;5.23;2.73;;;;;;;0.35;100.00;100544.44;5030265;28;20033;-71
2021/01/07 00:33:41;;;;;;;7.80;2.60;;;;;;;0.36;100.00;100553.91;5028254;28;20469;-70
2021/01/07 00:36:07;;;;;;;9.57;3.13;;;;;;;0.36;100.00;100551.31;5028565;28;20026;-70
2021/01/07 00:38:32;;;;;;;8.73;3.20;;;;;;;0.34;100.00;100552.97;5030137;28;20087;-71
2021/01/07 00:40:58;;;;;;;8.80;3.20;;;;;;;0.32;100.00;100544.31;5026713;28;20029;-70
2021/01/07 00:43:23;;;;;;;9.97;3.07;;;;;;;0.32;100.00;100546.88;5028845;28;20064;-69
2021/01/07 00:45:49;;;;;;;8.47;2.77;;;;;;;0.30;100.00;100543.38;5026662;28;20021;-71
2021/01/07 00:48:14;;;;;;;11.60;3.47;;;;;;;0.29;100.00;100544.19;5028714;28;20030;-70
2021/01/07 00:50:39;;;;;;;11.60;3.77;;;;;;;0.25;100.00;100547.47;5028026;28;20504;-69
2021/01/07 00:53:05;;;;;;;8.90;3.17;;;;;;;0.28;100.00;100540.75;5028892;28;20112;-71
2021/01/07 00:55:30;;;;;;;8.83;3.47;;;;;;;0.29;100.00;100536.47;5029904;28;20033;-71
2021/01/07 00:57:56;;;;;;;9.40;2.63;;;;;;;0.25;100.00;100532.03;5028761;28;20017;-70
2021/01/07 01:00:23;;;;;;;10.53;3.57;;;;;;;0.26;100.00;100538.94;5029285;28;20033;-70
2021/01/07 01:02:49;;;;;;;8.87;3.23;;;;;;;0.25;100.00;100538.06;5022958;28;20033;-70
2021/01/07 01:05:15;;;;;;;5.17;2.20;;;;;;;0.23;100.00;100531.97;5028639;28;20268;-70
2021/01/07 01:07:40;;;;;;;10.30;3.07;;;;;;;0.21;100.00;100530.16;5028250;28;20034;-71
2021/01/07 01:10:08;;;;;;;5.53;2.53;;;;;;;0.23;100.00;100533.66;5028997;28;20396;-70
2021/01/07 01:12:34;;;;;;;7.50;2.43;;;;;;;0.20;100.00;100538.69;5029636;28;20032;-71
2021/01/07 01:15:00;;;;;;;8.53;3.23;;;;;;;0.18;100.00;100530.03;5028908;28;20268;-70
2021/01/07 01:17:26;;;;;;;9.90;3.90;;;;;;;0.18;100.00;100535.19;5028562;28;20268;-69
2021/01/07 01:19:51;;;;;;;9.10;3.03;;;;;;;0.16;100.00;100534.25;5026213;28;20036;-71
2021/01/07 01:22:16;;;;;;;8.80;2.40;;;;;;;0.17;100.00;100518.88;5024950;28;20036;-70
2021/01/07 01:24:42;;;;;;;8.90;3.00;;;;;;;0.15;100.00;100525.66;5029148;28;20025;-70
2021/01/07 01:27:07;;;;;;;8.53;2.90;;;;;;;0.16;100.00;100523.97;5025705;28;20030;-72
2021/01/07 01:29:33;;;;;;;12.17;3.50;;;;;;;0.11;100.00;100533.16;5028652;28;20079;-71
2021/01/07 01:31:58;;;;;;;9.57;2.80;;;;;;;0.11;100.00;100518.59;5028253;28;20507;-70
2021/01/07 01:34:24;;;;;;;7.93;2.80;;;;;;;0.10;100.00;100527.13;5026173;28;20022;-70
2021/01/07 01:36:51;;;;;;;8.07;2.70;;;;;;;0.10;100.00;100526.25;5027971;28;20384;-71
2021/01/07 01:39:17;;;;;;;8.03;2.70;;;;;;;0.11;100.00;100528.00;5029247;28;20052;-70
2021/01/07 01:41:48;;;;;;;8.10;2.87;;;;;;;0.13;100.00;100531.56;5028454;28;20986;-71
2021/01/07 01:44:14;;;;;;;7.50;2.73;;;;;;;0.09;100.00;100525.38;5027341;28;20276;-71
2021/01/07 01:46:40;;;;;;;6.73;2.30;;;;;;;0.12;100.00;100524.63;5029078;28;20372;-71
2021/01/07 01:49:07;;;;;;;6.80;2.53;;;;;;;0.10;100.00;100527.13;5028106;28;20275;-71
2021/01/07 01:51:34;;;;;;;7.43;2.87;;;;;;;0.10;100.00;100531.41;5026536;28;20025;-70
2021/01/07 01:53:59;;;;;;;9.43;2.60;;;;;;;0.10;100.00;100524.56;5021950;28;20276;-67
2021/01/07 01:56:25;;;;;;;8.17;2.53;;;;;;;0.17;100.00;100518.00;5028645;28;20280;-70
2021/01/07 01:58:51;;;;;;;7.67;2.70;;;;;;;0.13;100.00;100527.28;5029105;28;20083;-70
2021/01/07 02:01:20;;;;;;;7.67;3.07;;;;;;;0.12;100.00;100529.78;5030331;28;20033;-70
2021/01/07 02:03:47;;;;;;;7.83;2.40;;;;;;;0.12;100.00;100524.63;5028770;28;20112;-71
2021/01/07 02:06:15;;;;;;;6.50;2.73;;;;;;;0.10;100.00;100516.84;5030893;28;20276;-70
2021/01/07 02:08:45;;;;;;;7.60;2.77;;;;;;;0.11;100.00;100522.88;5030801;28;20353;-70
2021/01/07 02:11:15;;;;;;;9.70;3.43;;;;;;;0.12;100.00;100529.78;5029208;28;20325;-70
2021/01/07 02:13:45;;;;;;;6.77;3.30;;;;;;;0.12;100.00;100524.63;5030617;28;20845;-71
2021/01/07 02:16:11;;;;;;;11.33;3.50;;;;;;;0.11;100.00;100522.88;5031614;28;20638;-72
2021/01/07 02:18:36;;;;;;;7.70;3.30;;;;;;;0.11;100.00;100523.75;5031132;28;20272;-73
2021/01/07 02:21:03;;;;;;;7.60;2.83;;;;;;;0.12;100.00;100527.19;5028380;28;20547;-70
2021/01/07 02:23:29;;;;;;;8.33;2.97;;;;;;;0.13;100.00;100521.28;5027984;28;20394;-74
2021/01/07 02:25:55;;;;;;;7.80;2.70;;;;;;;0.12;100.00;100527.19;5029646;28;20771;-73
2021/01/07 02:28:22;;;;;;;5.80;2.37;;;;;;;0.13;100.00;100516.13;5029851;28;20296;-71
2021/01/07 02:30:47;;;;;;;5.93;2.23;;;;;;;0.17;100.00;100518.00;5028577;28;20279;-71
2021/01/07 02:33:13;;;;;;;7.23;2.80;;;;;;;0.16;100.00;100511.09;5031367;28;20635;-70
2021/01/07 02:35:40;;;;;;;7.70;2.73;;;;;;;0.16;100.00;100516.25;5032322;28;20037;-71
2021/01/07 02:38:05;;;;;;;11.87;3.13;;;;;;;0.19;100.00;100516.34;5029139;28;20295;-70
2021/01/07 02:40:31;;;;;;;6.67;2.77;;;;;;;0.21;100.00;100525.88;5026658;28;20659;-70
2021/01/07 02:42:57;;;;;;;9.67;2.70;;;;;;;0.19;100.00;100522.38;5031469;28;20037;-72
2021/01/07 02:45:23;;;;;;;6.07;2.53;;;;;;;0.17;100.00;100518.00;5027059;28;20268;-72
2021/01/07 02:47:48;;;;;;;8.70;2.83;;;;;;;0.19;100.00;100511.22;5030535;28;20292;-70
2021/01/07 02:50:14;;;;;;;7.57;3.00;;;;;;;0.17;100.00;100505.16;5030457;28;20033;-70
2021/01/07 02:52:39;;;;;;;7.40;2.80;;;;;;;0.15;100.00;100504.22;5031547;28;20480;-72
2021/01/07 02:55:05;;;;;;;7.90;2.93;;;;;;;0.16;100.00;100503.38;5031073;28;20045;-71
2021/01/07 02:57:31;;;;;;;6.83;2.37;;;;;;;0.17;100.00;100503.44;5030910;28;20047;-71
2021/01/07 02:59:56;;;;;;;8.23;3.03;;;;;;;0.21;100.00;100499.28;5028986;28;20448;-69
2021/01/07 03:02:22;;;;;;;5.77;2.50;;;;;;;0.20;100.00;100500.13;5029806;28;20037;-70
2021/01/07 03:04:48;;;;;;;6.63;2.07;;;;;;;0.21;100.00;100494.16;5030087;28;20112;-71
2021/01/07 03:07:13;;;;;;;7.30;3.20;;;;;;;0.21;100.00;100501.88;5029620;28;20306;-70
2021/01/07 03:09:38;;;;;;;5.20;2.43;;;;;;;0.15;100.00;100497.38;5030201;28;20519;-71
2021/01/07 03:12:15;;;;;;;6.70;2.40;;;;;;;0.15;100.00;100489.66;5028250;28;20036;-70
2021/01/07 03:14:41;;;;;;;6.90;2.63;;;;;;;0.16;100.00;100486.28;5029964;28;20104;-70
2021/01/07 03:17:07;;;;;;;5.80;2.43;;;;;;;0.14;100.00;100487.91;5028807;28;20279;-70
2021/01/07 03:19:33;;;;;;;9.80;3.13;;;;;;;0.14;100.00;100481.91;5027691;28;20272;-70
2021/01/07 03:21:58;;;;;;;6.03;2.33;;;;;;;0.13;100.00;100485.28;5030285;28;20031;-70
2021/01/07 03:24:24;;;;;;;7.73;2.93;;;;;;;0.14;100.00;100481.91;5027381;28;20400;-70
2021/01/07 03:26:49;;;;;;;6.37;2.30;;;;;;;0.13;100.00;100486.16;5025472;28;20037;-71
2021/01/07 03:29:15;;;;;;;6.53;2.50;;;;;;;0.13;100.00;100478.44;5026306;28;20116;-70
2021/01/07 03:31:40;;;;;;;6.97;2.50;;;;;;;0.08;100.00;100473.91;5030205;28;20025;-71
2021/01/07 03:34:06;;;;;;;4.90;1.90;;;;;;;0.14;100.00;100481.91;5030029;28;20120;-70
2021/01/07 03:36:31;;;;;;;6.97;3.07;;;;;;;0.12;100.00;100478.34;5028546;28;20498;-70
2021/01/07 03:38:56;;;;;;;5.47;2.17;;;;;;;0.12;100.00;100483.50;5027656;28;20025;-71
2021/01/07 03:41:22;;;;;;;6.83;2.63;;;;;;;0.11;100.00;100479.19;5028341;28;20040;-71
2021/01/07 03:43:47;;;;;;;7.70;2.93;;;;;;;0.12;100.00;100479.28;5029352;28;20095;-69
2021/01/07 03:46:13;;;;;;;6.10;2.77;;;;;;;0.10;100.00;100470.59;5030264;28;20029;-72
2021/01/07 03:48:38;;;;;;;6.87;2.67;;;;;;;0.11;100.00;100466.31;5029977;28;20041;-70
2021/01/07 03:51:04;;;;;;;7.10;2.30;;;;;;;0.12;100.00;100475.78;5030815;28;20032;-69
2021/01/07 03:53:29;;;;;;;6.50;2.53;;;;;;;0.14;100.00;100476.75;5026528;28;20087;-69
2021/01/07 03:55:54;;;;;;;7.00;2.70;;;;;;;0.15;100.00;100483.66;5029902;28;20029;-70
2021/01/07 03:58:20;;;;;;;5.33;2.40;;;;;;;0.15;100.00;100473.38;5030492;28;20025;-71
2021/01/07 04:00:45;;;;;;;5.93;2.00;;;;;;;0.17;100.00;100472.59;5028615;28;20064;-69
2021/01/07 04:03:11;;;;;;;6.77;2.80;;;;;;;0.18;100.00;100469.22;5022353;28;20079;-70
2021/01/07 04:05:36;;;;;;;5.97;2.20;;;;;;;0.19;100.00;100470.09;5023782;28;20037;-71
2021/01/07 04:08:01;;;;;;;3.17;1.43;;;;;;;0.18;100.00;100476.03;5028348;28;20595;-71
2021/01/07 04:10:27;;;;;;;6.70;2.37;;;;;;;0.17;100.00;100471.72;5026822;28;20036;-69
2021/01/07 04:12:52;;;;;;;6.07;2.53;;;;;;;0.15;100.00;100474.25;5028478;28;20030;-71
2021/01/07 04:15:18;;;;;;;7.50;2.17;;;;;;;0.17;100.00;100469.16;5028608;28;20029;-71
2021/01/07 04:17:43;;;;;;;8.73;2.97;;;;;;;0.19;100.00;100463.25;5027672;28;20052;-70
2021/01/07 04:20:09;;;;;;;5.50;2.13;;;;;;;0.21;100.00;100465.88;5029574;28;20140;-70
2021/01/07 04:22:39;;;;;;;5.70;2.20;;;;;;;0.19;100.00;100460.69;5029927;28;20075;-69
2021/01/07 04:25:05;;;;;;;8.00;2.80;;;;;;;0.19;100.00;100465.81;5029065;28;20444;-71
2021/01/07 04:27:31;;;;;;;6.43;2.73;;;;;;;0.20;100.00;100462.44;5024527;28;20782;-69
2021/01/07 04:29:56;;;;;;;6.23;2.43;;;;;;;0.13;100.00;100451.88;5030137;28;20264;-71
2021/01/07 04:32:22;;;;;;;6.97;2.57;;;;;;;0.18;100.00;100453.78;5029123;28;20037;-70
2021/01/07 04:34:47;;;;;;;8.20;2.30;;;;;;;0.16;100.00;100459.69;5029008;28;20476;-69
2021/01/07 04:37:12;;;;;;;6.13;2.37;;;;;;;0.16;100.00;100458.00;5029356;28;20029;-71
2021/01/07 04:39:38;;;;;;;5.70;2.07;;;;;;;0.19;100.00;100457.22;5025593;28;20512;-69
2021/01/07 04:42:03;;;;;;;6.70;2.20;;;;;;;0.22;100.00;100450.50;5028931;28;20029;-69
2021/01/07 04:44:30;;;;;;;6.03;2.43;;;;;;;0.21;100.00;100455.59;5025373;28;20028;-70
2021/01/07 04:46:58;;;;;;;5.50;1.90;;;;;;;0.22;100.00;100459.91;5028051;28;20033;-69
2021/01/07 04:49:23;;;;;;;6.83;2.30;;;;;;;0.23;100.00;100453.94;5025174;28;20390;-71
2021/01/07 04:51:49;;;;;;;5.50;2.20;;;;;;;0.22;100.00;100457.34;5029978;28;20775;-70
2021/01/07 04:54:14;;;;;;;6.60;2.40;;;;;;;0.21;100.00;100453.03;5028793;28;20033;-69
2021/01/07 04:56:40;;;;;;;5.90;2.40;;;;;;;0.20;100.00;100452.16;5028303;28;20492;-69
2021/01/07 04:59:06;;;;;;;7.43;2.83;;;;;;;0.18;100.00;100452.91;5030012;28;20018;-70
2021/01/07 05:01:31;;;;;;;6.30;2.50;;;;;;;0.18;100.00;100447.75;5028631;28;20507;-73
2021/01/07 05:03:57;;;;;;;6.50;2.73;;;;;;;0.16;100.00;100454.53;5027965;28;20026;-70
2021/01/07 05:06:25;;;;;;;5.53;2.10;;;;;;;0.15;100.00;100457.94;5029944;28;20040;-71
2021/01/07 05:09:05;;;;;;;6.53;2.70;;;;;;;0.15;100.00;100458.81;5027792;28;20547;-69
2021/01/07 05:11:32;;;;;;;7.10;2.20;;;;;;;0.18;100.00;100450.34;5029736;28;20284;-69
2021/01/07 05:14:08;;;;;;;6.50;2.67;;;;;;;0.19;100.00;100459.81;5027631;28;20330;-69
2021/01/07 05:16:33;;;;;;;6.07;1.97;;;;;;;0.16;100.00;100454.53;5039849;28;20340;-69
2021/01/07 05:19:04;;;;;;;5.73;2.13;;;;;;;0.18;100.00;100452.91;5037037;28;20359;-69
2021/01/07 05:21:29;;;;;;;6.33;2.23;;;;;;;0.15;100.00;100453.66;5010497;28;20034;-69
2021/01/07 05:23:56;;;;;;;3.93;1.67;;;;;;;0.17;100.00;100451.16;5013741;28;20279;-70
2021/01/07 05:26:22;;;;;;;6.93;2.53;;;;;;;0.16;100.00;100445.13;5016650;28;20157;-70
2021/01/07 05:28:52;;;;;;;5.97;2.53;;;;;;;0.15;100.00;100442.50;5010039;28;20439;-69
2021/01/07 05:31:22;;;;;;;6.90;2.70;;;;;;;0.18;100.00;100450.34;5010376;28;20049;-69
2021/01/07 05:33:48;;;;;;;6.70;2.70;;;;;;;0.15;100.00;100440.81;5009859;28;20280;-71
2021/01/07 05:36:25;;;;;;;8.23;2.80;;;;;;;0.15;100.00;100442.50;5016286;28;20279;-69
2021/01/07 05:38:53;;;;;;;7.93;3.20;;;;;;;0.13;100.00;100439.00;5013578;28;20625;-69
2021/01/07 05:41:19;;;;;;;7.00;2.70;;;;;;;0.16;100.00;100439.13;5014257;28;20273;-70
2021/01/07 05:43:45;;;;;;;6.10;2.00;;;;;;;0.15;100.00;100437.38;5014063;28;20284;-70
2021/01/07 05:46:16;;;;;;;12.00;2.97;;;;;;;0.13;100.00;100439.00;5013257;28;20757;-69
2021/01/07 05:48:44;;;;;;;5.37;2.00;;;;;;;0.14;100.00;100430.47;5013583;28;20372;-69
2021/01/07 05:51:11;;;;;;;11.57;3.60;;;;;;;0.13;100.00;100434.75;5013713;28;20265;-69
2021/01/07 05:53:37;;;;;;;6.10;2.00;;;;;;;0.16;100.00;100432.28;5013334;28;20563;-70
2021/01/07 05:56:05;;;;;;;8.67;2.90;;;;;;;0.17;100.00;100430.59;5017617;28;20322;-70
2021/01/07 05:58:32;;;;;;;8.00;3.17;;;;;;;0.14;100.00;100435.63;5013618;28;20273;-69
2021/01/07 06:01:00;;;;;;;7.63;2.50;;;;;;;0.16;100.00;100437.44;5015201;28;20261;-69
2021/01/07 06:03:28;;;;;;;10.67;2.90;;;;;;;0.09;100.00;100430.28;5033093;28;20260;-69
2021/01/07 06:05:54;;;;;;;7.97;3.00;;;;;;;0.13;100.00;100436.44;5026277;28;20272;-70
2021/01/07 06:08:20;;;;;;;8.30;2.83;;;;;;;0.12;100.00;100437.22;5012935;28;20379;-69
2021/01/07 06:10:47;;;;;;;7.83;2.77;;;;;;;0.11;100.00;100431.22;5012321;28;20644;-71
2021/01/07 06:13:15;;;;;;;7.53;2.77;;;;;;;0.11;100.00;100432.91;5021337;28;20037;-70
2021/01/07 06:15:42;;;;;;;7.90;2.80;;;;;;;0.13;100.00;100436.44;5029463;28;20312;-69
2021/01/07 06:18:08;;;;;;;9.47;2.43;;;;;;;0.15;100.00;100435.69;5028326;28;20326;-70
2021/01/07 06:20:34;;;;;;;6.67;2.20;;;;;;;0.15;100.00;100434.81;5026787;28;20279;-70
2021/01/07 06:22:59;;;;;;;11.20;3.30;;;;;;;0.15;100.00;100427.09;5039344;28;20489;-70
2021/01/07 06:25:25;;;;;;;12.30;3.27;;;;;;;0.15;100.00;100433.09;5031603;28;20030;-70
2021/01/07 06:27:52;;;;;;;5.03;2.37;;;;;;;0.15;100.00;100434.81;5028902;28;20109;-70
2021/01/07 06:30:17;;;;;;;6.37;2.20;;;;;;;0.15;100.00;100433.09;5028036;28;20029;-69
2021/01/07 06:32:59;;;;;;;7.70;2.90;;;;;;;0.15;100.00;100432.22;5012497;28;20276;-70
2021/01/07 06:35:33;;;;;;;8.13;2.45;;;;;;;0.16;100.00;100439.13;5026785;28;20060;-71
2021/01/07 06:37:58;;;;;;;8.40;2.37;;;;;;;0.17;100.00;100435.72;5032384;28;20033;-70
2021/01/07 06:40:24;;;;;;;9.37;2.40;;;;;;;0.22;100.00;100436.78;5021186;28;20281;-70
2021/01/07 06:42:53;;;;;;;5.00;2.17;;;;;;;0.19;100.00;100444.38;5015343;28;20065;-69
2021/01/07 06:45:21;;;;;;;9.73;3.30;;;;;;;0.17;100.00;100436.59;5012718;28;20443;-71
2021/01/07 06:47:47;;;;;;;6.43;2.47;;;;;;;0.19;100.00;100434.09;5012404;28;20870;-69
2021/01/07 06:50:14;;;;;;;6.70;2.60;;;;;;;0.19;100.00;100434.09;5016142;28;20273;-70
2021/01/07 06:52:44;;;;;;;6.13;2.20;;;;;;;0.17;100.00;100430.59;5029475;28;20022;-69
2021/01/07 06:55:14;;;;;;;5.57;2.20;;;;;;;0.20;100.00;100435.84;5013727;28;20268;-69
2021/01/07 06:57:46;;;;;;;12.13;2.87;;;;;;;0.15;100.00;100438.25;5014998;28;20276;-70
2021/01/07 07:00:16;;;;;;;9.57;3.00;;;;;;;0.12;100.00;100437.22;5012318;28;20264;-69
2021/01/07 07:03:00;;;;;;;7.57;2.47;;;;;;;0.12;100.00;100437.22;5012085;28;20415;-71
2021/01/07 07:05:30;;;;;;;7.87;2.67;;;;;;;0.11;100.00;100444.06;5024465;28;20269;-69
2021/01/07 07:07:59;;;;;;;8.13;2.17;;;;;;;0.16;100.00;100439.13;5012398;28;20940;-70
2021/01/07 07:10:27;;;;;;;6.30;2.33;;;;;;;0.15;100.00;100447.66;5025790;28;20272;-69
2021/01/07 07:12:53;;;;;;;6.53;2.50;;;;;;;0.15;100.00;100437.38;5011782;28;20265;-69
2021/01/07 07:15:22;;;;;;;6.40;2.23;;;;;;;0.15;100.00;100453.66;5016920;28;20268;-69
2021/01/07 07:17:52;;;;;;;9.27;2.50;;;;;;;0.12;100.00;100447.50;5026396;28;20034;-70
2021/01/07 07:20:18;;;;;;;6.07;2.07;;;;;;;0.12;100.00;100445.84;5013448;28;20275;-69
2021/01/07 07:22:44;;;;;;;8.03;2.50;;;;;;;0.12;100.00;100452.66;5011834;28;20298;-70
2021/01/07 07:25:11;;;;;;;7.20;2.33;;;;;;;0.13;100.00;100454.44;5025704;28;20283;-71
2021/01/07 07:27:50;;;;;;;7.43;2.27;;;;;;;0.10;100.00;100452.59;5019183;28;20334;-70
2021/01/07 07:30:34;;;;;;;7.70;2.30;;;;;;;0.15;100.00;100452.78;5029059;28;20272;-69
2021/01/07 07:33:01;;;;;;;5.70;1.73;;;;;;;0.12;100.00;100457.78;5011854;28;20276;-67
2021/01/07 07:35:29;;;;;;;7.00;2.20;;;;;;;0.10;100.00;100459.44;5011730;28;20280;-69
2021/01/07 07:37:56;;;;;;;8.67;2.50;;;;;;;0.10;100.00;100456.84;5017754;28;20331;-68
2021/01/07 07:40:36;;;;;;;6.57;2.30;;;;;;;0.12;100.00;100462.94;5027157;28;20371;-68
2021/01/07 07:43:02;;;;;;;6.30;1.97;;;;;;;0.11;100.00;100456.91;5020939;28;20524;-67
2021/01/07 07:45:30;;;;;;;9.77;2.47;;;;;;;0.14;100.00;100458.75;5013306;28;20384;-68
2021/01/07 07:47:56;;;;;;;5.80;2.03;;;;;;;0.13;100.00;100459.56;5012969;28;20339;-68
2021/01/07 07:50:28;;;;;;;5.57;2.00;;;;;;;0.09;100.00;100462.81;5011754;28;20277;-67
2021/01/07 07:53:11;;;;;;;5.43;2.43;;;;;;;0.09;100.00;100463.69;5019372;28;20113;-68
2021/01/07 07:55:39;;;;;;;6.47;2.70;;;;;;;0.10;100.00;100472.28;5018858;28;20288;-69
2021/01/07 07:58:11;;;;;;;5.03;1.90;;;;;;;0.10;100.00;100469.72;5010794;28;20331;-68
2021/01/07 08:00:37;;;;;;;;;;;;;;;0.13;100.00;100467.28;5020558;28;20326;-69
2021/01/07 08:03:03;;;;;;;4.37;1.80;;;;;;;0.12;100.00;100473.22;5011543;28;19917;-66
2021/01/07 08:05:30;;;;;;;5.27;1.97;;;;;;;0.16;100.00;100472.53;5011243;28;20092;-67
2021/01/07 08:07:57;;;;;;;5.70;1.87;;;;;;;0.14;100.00;100476.75;5028268;28;20292;-67
2021/01/07 08:10:23;;;;;;;6.63;1.80;;;;;;;0.14;100.00;100477.63;5012038;28;20284;-68
2021/01/07 08:12:51;;;;;;;6.50;2.03;;;;;;;0.13;100.00;100477.56;5016129;28;20283;-67
2021/01/07 08:15:46;;;;;;;5.60;2.80;;;;;;;0.14;100.00;100480.19;5029514;28;20304;-67
2021/01/07 08:18:19;;;;;;;3.97;1.70;;;;;;;0.10;100.00;100475.72;5010813;28;20372;-69
2021/01/07 08:20:45;;;;;;;4.23;1.53;;;;;;;0.16;100.00;100482.81;5016704;28;20319;-68
2021/01/07 08:23:12;;;;;;;4.30;1.60;;;;;;;0.17;100.00;100484.56;5017459;28;20287;-67
2021/01/07 08:25:39;;;;;;;5.50;1.80;;;;;;;0.22;100.00;100486.50;5013135;28;20284;-68
2021/01/07 08:28:37;;;;;;;5.30;1.90;;;;;;;0.21;100.00;100489.00;5012294;28;20288;-67
2021/01/07 08:31:07;;;;;;;5.80;1.47;;;;;;;0.24;100.00;100483.97;5012089;28;20763;-68
2021/01/07 08:33:34;;;;;;;5.23;2.27;;;;;;;0.29;100.00;100482.50;5016192;28;20272;-67
2021/01/07 08:36:07;;;;;;;7.33;2.20;;;;;;;0.30;100.00;100479.09;5012102;28;20269;-69
2021/01/07 08:38:34;;;;;;;7.67;2.10;;;;;;;0.32;100.00;100482.59;5021031;28;20311;-67
2021/01/07 08:41:26;;;;;;;5.93;1.90;;;;;;;0.29;100.00;100482.50;5010385;28;20352;-70
2021/01/07 08:43:53;;;;;;;6.23;2.03;;;;;;;0.35;100.00;100482.72;5014450;28;20362;-68
2021/01/07 08:46:26;;;;;;;5.20;2.07;;;;;;;0.35;100.00;100482.72;5015813;28;20318;-68
2021/01/07 08:49:09;;;;;;;6.87;2.53;;;;;;;0.39;100.00;100484.59;5023478;28;20280;-69
2021/01/07 08:51:43;;;;;;;5.10;1.90;;;;;;;0.43;100.00;100485.59;5022566;28;20272;-68
2021/01/07 08:54:16;;;;;;;3.97;1.63;;;;;;;0.51;100.00;100479.94;5018276;28;20033;-69
2021/01/07 08:56:43;;;;;;;6.43;2.00;;;;;;;0.50;100.00;100473.03;5011430;28;20272;-67
2021/01/07 08:59:36;;;;;;;5.30;2.03;;;;;;;0.49;100.00;100478.13;5017092;28;20759;-69
2021/01/07 09:02:02;;;;;;;5.53;2.03;;;;;;;0.63;100.00;100483.78;5010914;28;20265;-68
2021/01/07 09:04:41;;;;;;;5.07;2.10;;;;;;;0.69;100.00;100484.00;5010004;28;20287;-68
2021/01/07 09:07:12;;;;;;;6.13;1.67;;;;;;;0.66;100.00;100483.88;5013324;28;20108;-69
2021/01/07 09:09:38;;;;;;;5.63;1.90;;;;;;;0.58;100.00;100483.59;5018305;28;20284;-68
2021/01/07 09:12:10;;;;;;;5.43;1.77;;;;;;;0.60;100.00;100489.66;5014272;28;20798;-68
2021/01/07 09:15:07;;;;;;;6.13;1.87;;;;;;;0.63;100.00;100483.78;5029332;28;20040;-67
2021/01/07 09:17:52;;;;;;;6.57;2.10;;;;;;;0.65;100.00;100492.44;5016063;28;20268;-68
2021/01/07 09:20:28;;;;;;;6.27;1.97;;;;;;;0.71;100.00;100484.94;5028075;28;20280;-68
2021/01/07 09:23:05;;;;;;;4.97;1.50;;;;;;;0.66;100.00;100478.75;5013815;28;20276;-67
2021/01/07 09:25:31;;;;;;;5.10;2.10;;;;;;;0.73;100.00;100478.16;5014812;28;20277;-69
2021/01/07 09:27:57;;;;;;;8.30;1.90;;;;;;;0.66;100.00;100469.34;5028916;28;20303;-70
2021/01/07 09:30:24;;;;;;;4.23;1.70;;;;;;;0.68;100.00;100477.09;5033602;28;20276;-67
2021/01/07 09:32:50;;;;;;;3.60;1.40;;;;;;;0.65;100.00;100482.13;5017887;28;20352;-68
2021/01/07 09:35:15;;;;;;;3.40;1.33;;;;;;;0.73;100.00;100475.59;5015839;28;20372;-70
2021/01/07 09:37:41;;;;;;;5.60;1.70;;;;;;;0.73;100.00;100479.03;5030865;28;20025;-68
2021/01/07 09:40:07;;;;;;;4.60;1.70;;;;;;;0.75;100.00;100474.81;5013925;28;20034;-67
2021/01/07 09:42:33;;;;;;;5.57;1.70;;;;;;;0.79;100.00;100481.81;5016676;28;20131;-69
2021/01/07 09:45:00;;;;;;;6.53;1.50;;;;;;;0.79;100.00;100480.94;5029316;28;20766;-69
2021/01/07 09:47:26;;;;;;;4.40;1.43;;;;;;;0.79;100.00;100475.81;5013394;28;20334;-68
2021/01/07 09:49:52;;;;;;;8.33;2.00;;;;;;;0.76;100.00;100467.97;5013435;28;20273;-68
2021/01/07 09:52:17;;;;;;;5.60;1.80;;;;;;;0.74;100.00;100474.78;5013227;28;20707;-71
2021/01/07 09:54:44;;;;;;;4.07;1.83;;;;;;;0.75;100.00;100469.69;5016278;28;20128;-71
2021/01/07 09:57:09;;;;;;;3.47;1.50;;;;;;;0.74;100.00;100470.50;5026025;28;20542;-67
2021/01/07 09:59:36;;;;;;;5.90;1.90;;;;;;;0.74;100.00;100469.63;5014634;28;20277;-70
2021/01/07 10:02:06;;;;;;;3.37;1.33;;;;;;;0.70;100.00;100467.75;5014305;28;20017;-67
2021/01/07 10:04:32;;;;;;;6.13;1.70;;;;;;;0.71;100.00;100461.78;5026927;28;20291;-69
2021/01/07 10:06:59;;;;;;;4.07;1.50;;;;;;;0.68;100.00;100456.53;5013310;28;20359;-68
2021/01/07 10:09:24;;;;;;;4.77;1.73;;;;;;;0.61;100.00;100467.38;5013261;28;20364;-69
2021/01/07 10:11:55;;;;;;;5.53;2.50;;;;;;;0.53;100.00;100460.28;5023335;28;20340;-68
2021/01/07 10:14:21;;;;;;;5.87;2.10;;;;;;;0.51;100.00;100459.34;5013232;28;20033;-69
2021/01/07 10:16:57;;;;;;;7.00;2.20;;;;;;;0.46;100.00;100460.84;5012850;28;20279;-70
2021/01/07 10:19:26;;;;;;;6.00;1.70;;;;;;;0.43;100.00;100465.88;5012515;28;20304;-69
2021/01/07 10:21:55;;;;;;;7.57;1.70;;;;;;;0.46;100.00;100460.84;5014171;28;20273;-69
2021/01/07 10:24:20;;;;;;;8.27;2.10;;;;;;;0.47;100.00;100459.16;5015857;28;20273;-68
2021/01/07 10:26:46;;;;;;;10.53;2.37;;;;;;;0.49;100.00;100449.84;5012877;28;20752;-69
2021/01/07 10:29:11;;;;;;;4.60;1.83;;;;;;;0.51;100.00;100454.19;5026206;28;20464;-70
2021/01/07 10:31:37;;;;;;;6.70;2.37;;;;;;;0.51;100.00;100454.19;5014908;28;20036;-68
2021/01/07 10:34:04;;;;;;;7.70;2.27;;;;;;;0.59;100.00;100454.47;5012695;28;20033;-68
2021/01/07 10:36:30;;;;;;;9.97;2.27;;;;;;;0.67;100.00;100454.78;5015982;28;20720;-68
2021/01/07 10:38:58;;;;;;;9.80;3.33;;;;;;;0.72;100.00;100448.09;5012552;28;20268;-68
2021/01/07 10:41:29;;;;;;;7.07;2.20;;;;;;;0.72;100.00;100448.09;5016161;28;20280;-70
2021/01/07 10:43:59;;;;;;;7.47;2.17;;;;;;;0.77;100.00;100449.16;5012838;28;20273;-69
2021/01/07 10:46:24;;;;;;;10.27;2.10;;;;;;;0.84;100.00;100451.09;5019049;28;20349;-70
2021/01/07 10:48:51;;;;;;;10.47;3.00;;;;;;;0.90;100.00;100443.63;5022526;28;20778;-71
2021/01/07 10:51:18;;;;;;;8.10;2.40;;;;;;;0.91;100.00;100435.06;5019001;28;20029;-69
2021/01/07 10:53:59;;;;;;;8.83;2.80;;;;;;;0.98;100.00;100444.78;5023727;28;20327;-70
2021/01/07 10:57:03;;;;;;;8.47;3.23;;;;;;;0.99;100.00;100445.66;5038228;28;20277;-69
2021/01/07 10:59:54;;;;;;;10.60;2.80;;;;;;;1.19;100.00;100442.06;5012224;28;20360;-69
2021/01/07 11:02:45;;;;;;;8.07;2.97;;;;;;;1.34;100.00;100446.88;5013348;28;20351;-68
2021/01/07 11:05:16;;;;;;;15.43;3.70;;;;;;;1.33;100.00;100446.00;5019791;28;20276;-68
2021/01/07 11:07:48;;;;;;;10.33;3.60;;;;;;;1.39;100.00;100450.50;5012161;28;20312;-67
2021/01/07 11:10:15;;;;;;;10.77;3.58;;;;;;;1.21;100.00;100439.53;5012375;28;20265;-68
2021/01/07 11:12:57;;;;;;;12.43;4.33;;;;;;;1.26;100.00;100438.00;5021406;28;20449;-70
2021/01/07 11:15:25;;;;;;;14.63;3.87;;;;;;;1.24;100.00;100437.09;5011946;28;20304;-69
2021/01/07 11:17:58;;;;;;;12.53;3.93;;;;;;;1.28;100.00;100431.22;5012453;28;20351;-69
2021/01/07 11:20:27;;;;;;;11.97;4.27;;;;;;;1.47;100.00;100438.75;5016876;28;20280;-68
2021/01/07 11:22:54;;;;;;;15.27;4.37;;;;;;;1.52;100.00;100426.00;5011748;28;20348;-70
2021/01/07 11:25:19;;;;;;;13.47;4.10;;;;;;;1.56;100.00;100423.56;5016410;28;20324;-69
2021/01/07 11:27:47;;;;;;;11.00;3.63;;;;;;;1.58;100.00;100423.66;5011718;28;20320;-70
2021/01/07 11:30:13;;;;;;;12.67;3.80;;;;;;;1.63;100.00;100420.38;5013171;28;20018;-68